Time;durP1;ratioP1;P1;durP2;ratioP2;P2;SDS_P1;SDS_P2;PMS_P1;PMS_P2;Temp;Humidity;BMP_temperature;BMP_pressure;BME280_temperature;BME280_humidity;BME280_pressure;Samples;Min_cycle;Max_cycle;Signal;HPM_P1;HPM_P2
2022/12/05 00:01:28;;;;;;;;;;;;;;;1.00;100.00;101657.25;5014670;28;19917;-62
2022/12/05 00:03:55;;;;;;;;;;;;;;;1.00;100.00;101662.69;5014657;28;19913;-62
2022/12/05 00:06:21;;;;;;;;;;;;;;;1.11;100.00;101653.81;5014469;28;19921;-62
2022/12/05 00:08:47;;;;;;;;;;;;;;;1.07;100.00;101666.22;5014160;28;19913;-61
2022/12/05 00:11:17;;;;;;;;;;;;;;;1.03;100.00;101663.09;5014050;28;19920;-62
2022/12/05 00:13:42;;;;;;;;;;;;;;;1.05;100.00;101652.78;5013981;28;19953;-62
2022/12/05 00:16:12;;;;;;;;;;;;;;;1.06;100.00;101665.38;5014217;28;19956;-62
2022/12/05 00:18:37;;;;;;;;;;;;;;;1.15;100.00;101657.75;5014407;28;19932;-61
2022/12/05 00:21:03;;;;;;;;;;;;;;;1.12;100.00;101666.38;5014438;28;19967;-62
2022/12/05 00:23:28;;;;;;;;;;;;;;;1.10;100.00;101660.31;5014429;28;19914;-61
2022/12/05 00:25:53;;;;;;;;;;;;;;;1.11;100.00;101659.25;5014473;28;19921;-60
2022/12/05 00:28:19;;;;;;;;;;;;;;;1.11;100.00;101661.16;5014394;28;19913;-60
2022/12/05 00:30:44;;;;;;;;;;;;;;;1.11;100.00;101650.25;5014161;28;19913;-60
2022/12/05 00:33:09;;;;;;;;;;;;;;;1.11;100.00;101650.25;5014100;28;19968;-60
2022/12/05 00:35:34;;;;;;;;;;;;;;;1.12;100.00;101649.19;5014125;28;20332;-60
2022/12/05 00:38:00;;;;;;;;;;;;;;;1.12;100.00;101650.03;5011431;28;19987;-63
2022/12/05 00:40:25;;;;;;;;;;;;;;;1.14;100.00;101647.06;5012855;28;20374;-62
2022/12/05 00:42:50;;;;;;;;;;;;;;;1.18;100.00;101648.28;5013681;28;19991;-62
2022/12/05 00:45:15;;;;;;;;;;;;;;;1.16;100.00;101645.81;5013774;28;19921;-61
2022/12/05 00:47:40;;;;;;;;;;;;;;;1.27;100.00;101644.22;5013747;28;20278;-62
2022/12/05 00:50:06;;;;;;;;;;;;;;;1.17;100.00;101644.75;5013407;28;19955;-62
2022/12/05 00:52:31;;;;;;;;;;;;;;;1.19;100.00;101648.06;5013618;28;19924;-62
2022/12/05 00:54:56;;;;;;;;;;;;;;;1.20;100.00;101641.56;5013579;28;19940;-62
2022/12/05 00:57:22;;;;;;;;;;;;;;;1.22;100.00;101649.53;5013543;28;20361;-62
2022/12/05 00:59:47;;;;;;;;;;;;;;;1.21;100.00;101647.88;5013608;28;19924;-62
2022/12/05 01:02:12;;;;;;;;;;;;;;;1.23;100.00;101648.44;5013510;28;19949;-62
2022/12/05 01:04:37;;;;;;;;;;;;;;;1.20;100.00;101649.75;5013751;28;19917;-62
2022/12/05 01:07:02;;;;;;;;;;;;;;;1.21;100.00;101653.31;5013393;28;19913;-62
2022/12/05 01:09:27;;;;;;;;;;;;;;;1.23;100.00;101656.63;5013397;28;19979;-62
2022/12/05 01:11:53;;;;;;;;;;;;;;;1.22;100.00;101654.97;5013146;28;20310;-62
2022/12/05 01:14:19;;;;;;;;;;;;;;;1.23;100.00;101657.47;5013229;28;19913;-62
2022/12/05 01:16:45;;;;;;;;;;;;;;;1.24;100.00;101652.84;5013425;28;20324;-62
2022/12/05 01:19:12;;;;;;;;;;;;;;;1.24;100.00;101656.41;5013113;28;19913;-61
2022/12/05 01:21:37;;;;;;;;;;;;;;;1.23;100.00;101654.75;5012922;28;19964;-61
2022/12/05 01:24:03;;;;;;;;;;;;;;;1.24;100.00;101658.28;5013022;28;20394;-61
2022/12/05 01:26:28;;;;;;;;;;;;;;;1.23;100.00;101657.47;5013076;28;19924;-62
2022/12/05 01:28:54;;;;;;;;;;;;;;;1.26;100.00;101658.91;5012890;28;19964;-62
2022/12/05 01:31:22;;;;;;;;;;;;;;;1.30;100.00;101667.47;5013091;28;19917;-63
2022/12/05 01:33:48;;;;;;;;;;;;;;;1.30;100.00;101665.59;5010121;28;20012;-62
2022/12/05 01:36:13;;;;;;;;;;;;;;;1.32;100.00;101668.94;5012347;28;20534;-62
2022/12/05 01:38:39;;;;;;;;;;;;;;;1.32;100.00;101671.66;5013042;28;19982;-62
2022/12/05 01:41:05;;;;;;;;;;;;;;;1.34;100.00;101674.97;5012762;28;19914;-61
2022/12/05 01:43:30;;;;;;;;;;;;;;;1.32;100.00;101677.13;5012704;28;19925;-62
2022/12/05 01:45:56;;;;;;;;;;;;;;;1.35;100.00;101673.94;5012814;28;19913;-62
2022/12/05 01:48:26;;;;;;;;;;;;;;;1.36;100.00;101678.31;5012589;28;20433;-62
2022/12/05 01:50:52;;;;;;;;;;;;;;;1.35;100.00;101676.66;5012962;28;19917;-62
2022/12/05 01:53:18;;;;;;;;;;;;;;;1.37;100.00;101685.44;5012551;28;20357;-62
2022/12/05 01:55:44;;;;;;;;;;;;;;;1.38;100.00;101689.00;5012398;28;19920;-63
2022/12/05 01:58:09;;;;;;;;;;;;;;;1.38;100.00;101689.84;5012351;28;19944;-63
2022/12/05 02:00:35;;;;;;;;;;;;;;;1.38;100.00;101684.41;5011693;28;19929;-63
2022/12/05 02:03:03;;;;;;;;;;;;;;;1.42;100.00;101701.13;5012346;28;19914;-63
2022/12/05 02:05:30;;;;;;;;;;;;;;;1.40;100.00;101692.34;5012469;28;19913;-63
2022/12/05 02:07:56;;;;;;;;;;;;;;;1.42;100.00;101695.69;5012523;28;19952;-63
2022/12/05 02:10:22;;;;;;;;;;;;;;;1.38;100.00;101684.41;5012416;28;19968;-63
2022/12/05 02:12:48;;;;;;;;;;;;;;;1.42;100.00;101687.50;5012259;28;19971;-63
2022/12/05 02:15:25;;;;;;;;;;;;;;;1.41;100.00;101688.56;5012386;28;19975;-63
2022/12/05 02:17:58;;;;;;;;;;;;;;;1.37;100.00;101682.72;5012435;28;20012;-63
2022/12/05 02:20:35;;;;;;;;;;;;;;;1.40;100.00;101686.88;5012348;28;19917;-62
2022/12/05 02:23:03;;;;;;;;;;;;;;;1.38;100.00;101687.13;5012246;28;20366;-63
2022/12/05 02:25:43;;;;;;;;;;;;;;;1.38;100.00;101684.41;5012196;28;19917;-63
2022/12/05 02:28:23;;;;;;;;;;;;;;;1.38;100.00;101684.41;5012227;28;19917;-63
2022/12/05 02:30:55;;;;;;;;;;;;;;;1.39;100.00;101685.22;5010190;28;19979;-63
2022/12/05 02:33:22;;;;;;;;;;;;;;;1.46;100.00;101691.47;5010770;28;19913;-63
2022/12/05 02:35:47;;;;;;;;;;;;;;;1.47;100.00;101686.84;5011987;28;19936;-63
2022/12/05 02:38:30;;;;;;;;;;;;;;;1.44;100.00;101681.81;5011995;28;20312;-63
2022/12/05 02:41:00;;;;;;;;;;;;;;;1.44;100.00;101679.09;5011903;28;19969;-63
2022/12/05 02:43:31;;;;;;;;;;;;;;;1.45;100.00;101686.22;5012035;28;19979;-63
2022/12/05 02:45:59;;;;;;;;;;;;;;;1.46;100.00;101679.72;5011949;28;20372;-63
2022/12/05 02:48:26;;;;;;;;;;;;;;;1.45;100.00;101680.75;5012059;28;20052;-63
2022/12/05 02:50:53;;;;;;;;;;;;;;;1.47;100.00;101686.84;5012184;28;19917;-63
2022/12/05 02:53:20;;;;;;;;;;;;;;;1.44;100.00;101685.41;5011871;28;19971;-63
2022/12/05 02:55:46;;;;;;;;;;;;;;;1.44;100.00;101682.66;5011904;28;19933;-63
2022/12/05 02:58:16;;;;;;;;;;;;;;;1.46;100.00;101694.19;5011922;28;20448;-63
2022/12/05 03:00:43;;;;;;;;;;;;;;;1.46;100.00;101694.19;5011708;28;19917;-63
2022/12/05 03:03:12;;;;;;;;;;;;;;;1.45;100.00;101703.44;5012751;28;19913;-63
2022/12/05 03:05:46;;;;;;;;;;;;;;;1.44;100.00;101695.44;5030853;28;19913;-63
2022/12/05 03:08:14;;;;;;;;;;;;;;;1.45;100.00;101691.66;5015798;28;20032;-63
2022/12/05 03:10:41;;;;;;;;;;;;;;;1.41;100.00;101691.28;5015564;28;19913;-63
2022/12/05 03:13:11;;;;;;;;;;;;;;;1.40;100.00;101692.34;5015429;28;19932;-63
2022/12/05 03:15:38;;;;;;;;;;;;;;;1.40;100.00;101693.19;5015765;28;19917;-63
2022/12/05 03:18:07;;;;;;;;;;;;;;;1.47;100.00;101687.66;5015524;28;19925;-63
2022/12/05 03:20:40;;;;;;;;;;;;;;;1.43;100.00;101685.59;5015416;28;19914;-61
2022/12/05 03:23:08;;;;;;;;;;;;;;;1.43;100.00;101680.16;5015602;28;19913;-61
2022/12/05 03:25:38;;;;;;;;;;;;;;;1.40;100.00;101679.56;5012707;28;19920;-61
2022/12/05 03:28:24;;;;;;;;;;;;;;;1.42;100.00;101684.78;5015422;28;20030;-61
2022/12/05 03:30:52;;;;;;;;;;;;;;;1.41;100.00;101685.84;5015587;28;19914;-61
2022/12/05 03:33:18;;;;;;;;;;;;;;;1.42;100.00;101684.78;5015597;28;19918;-61
2022/12/05 03:35:46;;;;;;;;;;;;;;;1.43;100.00;101677.41;5015234;28;20372;-62
2022/12/05 03:38:23;;;;;;;;;;;;;;;1.45;100.00;101683.50;5015057;28;19918;-61
2022/12/05 03:40:51;;;;;;;;;;;;;;;1.42;100.00;101678.50;5015059;28;19944;-61
2022/12/05 03:43:33;;;;;;;;;;;;;;;1.39;100.00;101686.06;5014996;28;19913;-61
2022/12/05 03:46:01;;;;;;;;;;;;;;;1.37;100.00;101679.19;5014929;28;19928;-61
2022/12/05 03:48:30;;;;;;;;;;;;;;;1.40;100.00;101675.97;5013546;28;19923;-61
2022/12/05 03:50:57;;;;;;;;;;;;;;;1.40;100.00;101681.44;5014890;28;19923;-61
2022/12/05 03:53:25;;;;;;;;;;;;;;;1.40;100.00;101682.28;5014952;28;19917;-61
2022/12/05 03:55:58;;;;;;;;;;;;;;;1.38;100.00;101684.41;5014858;28;20318;-61
2022/12/05 03:58:29;;;;;;;;;;;;;;;1.40;100.00;101682.28;5014659;28;19936;-61
2022/12/05 04:00:57;;;;;;;;;;;;;;;1.38;100.00;101689.00;5014723;28;20424;-62
2022/12/05 04:03:25;;;;;;;;;;;;;;;1.38;100.00;101689.84;5014718;28;19951;-62
2022/12/05 04:05:55;;;;;;;;;;;;;;;1.37;100.00;101687.34;5014528;28;19914;-62
2022/12/05 04:08:26;;;;;;;;;;;;;;;1.38;100.00;101680.81;5014503;28;19913;-61
2022/12/05 04:10:54;;;;;;;;;;;;;;;1.40;100.00;101686.88;5014507;28;19924;-62
2022/12/05 04:13:22;;;;;;;;;;;;;;;1.42;100.00;101695.69;5014636;28;19961;-62
2022/12/05 04:18:42;;;;;;;;;;;;;;;1.43;100.00;101688.31;5014859;28;20268;-61
2022/12/05 04:26:42;;;;;;;;;;;;;;;1.44;100.00;101698.19;5014678;28;20022;-63
2022/12/05 04:29:13;;;;;;;;;;;;;;;1.54;100.00;101693.91;5014747;28;20384;-61
2022/12/05 04:31:43;;;;;;;;;;;;;;;1.44;100.00;101696.31;5014652;28;19917;-61
2022/12/05 04:34:11;;;;;;;;;;;;;;;1.40;100.00;101695.91;5014270;28;19913;-61
2022/12/05 04:36:37;;;;;;;;;;;;;;;1.42;100.00;101703.03;5014226;28;19914;-61
2022/12/05 04:39:11;;;;;;;;;;;;;;;1.50;100.00;101697.31;5014469;28;19924;-62
2022/12/05 04:41:49;;;;;;;;;;;;;;;1.52;100.00;101706.91;5014073;28;20024;-63
2022/12/05 04:44:16;;;;;;;;;;;;;;;1.49;100.00;101712.00;5014019;28;20288;-62
2022/12/05 04:46:43;;;;;;;;;;;;;;;1.50;100.00;101714.50;5013868;28;20412;-61
2022/12/05 04:49:10;;;;;;;;;;;;;;;1.52;100.00;101717.84;5013668;28;19921;-61
2022/12/05 04:51:37;;;;;;;;;;;;;;;1.52;100.00;101708.78;5013466;28;19917;-61
2022/12/05 04:54:05;;;;;;;;;;;;;;;1.50;100.00;101708.22;5013423;28;19964;-61
2022/12/05 04:56:32;;;;;;;;;;;;;;;1.51;100.00;101704.44;5013580;28;19913;-61
2022/12/05 04:58:58;;;;;;;;;;;;;;;1.64;100.00;101695.28;5013717;28;19914;-61
2022/12/05 05:01:33;;;;;;;;;;;;;;;1.54;100.00;101695.78;5013485;28;19970;-61
2022/12/05 05:04:01;;;;;;;;;;;;;;;1.54;100.00;101698.50;5013413;28;19929;-61
2022/12/05 05:06:27;;;;;;;;;;;;;;;1.56;100.00;101704.56;5012053;28;19918;-61
2022/12/05 05:08:54;;;;;;;;;;;;;;;1.55;100.00;101708.34;5013296;28;20132;-61
2022/12/05 05:11:25;;;;;;;;;;;;;;;1.54;100.00;101699.34;5013472;28;19925;-64
2022/12/05 05:13:51;;;;;;;;;;;;;;;1.53;100.00;101705.88;5013165;28;20071;-64
2022/12/05 05:16:18;;;;;;;;;;;;;;;1.58;100.00;101707.91;5010445;28;20013;-63
2022/12/05 05:18:44;;;;;;;;;;;;;;;1.58;100.00;101704.34;5012917;28;19914;-63
2022/12/05 05:21:23;;;;;;;;;;;;;;;1.57;100.00;101708.97;5011744;28;19940;-63
2022/12/05 05:23:48;;;;;;;;;;;;;;;1.59;100.00;101709.59;5012886;28;19920;-63
2022/12/05 05:26:14;;;;;;;;;;;;;;;1.63;100.00;101718.16;5012696;28;20037;-63
2022/12/05 05:28:39;;;;;;;;;;;;;;;1.60;100.00;101716.72;5012779;28;19914;-64
2022/12/05 05:31:05;;;;;;;;;;;;;;;1.60;100.00;101713.13;5012237;28;19917;-64
2022/12/05 05:33:30;;;;;;;;;;;;;;;1.59;100.00;101712.31;5011715;28;19989;-64
2022/12/05 05:35:56;;;;;;;;;;;;;;;1.59;100.00;101711.47;5010401;28;19917;-63
2022/12/05 05:38:21;;;;;;;;;;;;;;;1.58;100.00;101715.25;5011715;28;19921;-63
2022/12/05 05:40:46;;;;;;;;;;;;;;;1.58;100.00;101721.56;5012490;28;20004;-63
2022/12/05 05:43:11;;;;;;;;;;;;;;;1.60;100.00;101715.88;5012487;28;20011;-64
2022/12/05 05:45:37;;;;;;;;;;;;;;;1.63;100.00;101718.16;5012661;28;19920;-64
2022/12/05 05:48:02;;;;;;;;;;;;;;;1.64;100.00;101717.91;5012715;28;19914;-64
2022/12/05 05:50:27;;;;;;;;;;;;;;;1.65;100.00;101718.78;5012523;28;19939;-64
2022/12/05 05:52:52;;;;;;;;;;;;;;;1.65;100.00;101718.78;5012557;28;19924;-63
2022/12/05 05:55:18;;;;;;;;;;;;;;;1.66;100.00;101715.81;5012563;28;19913;-63
2022/12/05 05:57:43;;;;;;;;;;;;;;;1.69;100.00;101718.09;5012458;28;19919;-63
2022/12/05 06:00:08;;;;;;;;;;;;;;;1.72;100.00;101711.34;5012644;28;20249;-63
2022/12/05 06:02:34;;;;;;;;;;;;;;;1.73;100.00;101713.03;5012902;28;19996;-62
2022/12/05 06:05:00;;;;;;;;;;;;;;;1.73;100.00;101714.91;5012108;28;19913;-62
2022/12/05 06:07:25;;;;;;;;;;;;;;;1.74;100.00;101719.31;5011696;28;19988;-63
2022/12/05 06:09:51;;;;;;;;;;;;;;;1.76;100.00;101717.19;5011763;28;19917;-62
2022/12/05 06:12:16;;;;;;;;;;;;;;;1.77;100.00;101718.84;5009849;28;20393;-62
2022/12/05 06:14:41;;;;;;;;;;;;;;;1.77;100.00;101718.84;5009878;28;19917;-63
2022/12/05 06:17:06;;;;;;;;;;;;;;;1.81;100.00;101731.81;5011161;28;19917;-63
2022/12/05 06:19:31;;;;;;;;;;;;;;;1.81;100.00;101726.38;5011131;28;19917;-62
2022/12/05 06:21:57;;;;;;;;;;;;;;;1.81;100.00;101736.44;5011140;28;19913;-62
2022/12/05 06:24:22;;;;;;;;;;;;;;;1.82;100.00;101738.94;5011218;28;19913;-62
2022/12/05 06:26:47;;;;;;;;;;;;;;;1.83;100.00;101734.31;5010590;28;19917;-62
2022/12/05 06:29:12;;;;;;;;;;;;;;;1.84;100.00;101725.06;5010149;28;20381;-62
2022/12/05 06:31:37;;;;;;;;;;;;;;;1.85;100.00;101732.19;5011133;28;19987;-62
2022/12/05 06:34:03;;;;;;;;;;;;;;;1.86;100.00;101739.34;5011094;28;19914;-62
2022/12/05 06:36:28;;;;;;;;;;;;;;;1.86;100.00;101742.06;5011065;28;19913;-62
2022/12/05 06:38:56;;;;;;;;;;;;;;;1.86;100.00;101736.59;5027475;28;20303;-64
2022/12/05 06:41:23;;;;;;;;;;;;;;;1.90;100.00;101742.44;5030660;28;19913;-62
2022/12/05 06:43:50;;;;;;;;;;;;;;;1.90;100.00;101746.00;5030660;28;19917;-63
2022/12/05 06:46:15;;;;;;;;;;;;;;;1.88;100.00;101737.22;5024209;28;19989;-62
2022/12/05 06:48:41;;;;;;;;;;;;;;;1.89;100.00;101732.59;4992450;28;20595;-63
2022/12/05 06:51:08;;;;;;;;;;;;;;;1.87;100.00;101733.63;4991394;28;20313;-62
2022/12/05 06:53:33;;;;;;;;;;;;;;;1.89;100.00;101733.41;4991137;28;20005;-62
2022/12/05 06:56:00;;;;;;;;;;;;;;;1.90;100.00;101732.34;4991104;28;20389;-62
2022/12/05 06:58:25;;;;;;;;;;;;;;;1.94;100.00;101741.75;4991145;28;19918;-62
2022/12/05 07:03:35;;;;;;;;;;;;;;;1.95;100.00;101745.31;4991668;28;20279;-62
2022/12/05 07:06:01;;;;;;;;;;;;;;;1.96;100.00;101745.09;4991125;28;20353;-63
2022/12/05 07:08:26;;;;;;;;;;;;;;;1.91;100.00;101739.47;4991104;28;20396;-63
2022/12/05 07:10:52;;;;;;;;;;;;;;;1.93;100.00;101750.19;4991088;28;20020;-62
2022/12/05 07:13:17;;;;;;;;;;;;;;;1.91;100.00;101755.84;4991174;28;20039;-62
2022/12/05 07:15:44;;;;;;;;;;;;;;;1.91;100.00;101753.13;4991074;28;19917;-62
2022/12/05 07:18:10;;;;;;;;;;;;;;;1.93;100.00;101761.94;4990851;28;19913;-62
2022/12/05 07:20:35;;;;;;;;;;;;;;;1.94;100.00;101760.88;4989445;28;19952;-64
2022/12/05 07:23:00;;;;;;;;;;;;;;;1.96;100.00;101766.94;4989608;28;19920;-63
2022/12/05 07:25:26;;;;;;;;;;;;;;;1.98;100.00;101764.81;4989933;28;20440;-63
2022/12/05 07:27:53;;;;;;;;;;;;;;;1.99;100.00;101766.47;4989872;28;20430;-63
2022/12/05 07:30:18;;;;;;;;;;;;;;;1.99;100.00;101777.38;4989941;28;19917;-65
2022/12/05 07:32:43;;;;;;;;;;;;;;;2.02;100.00;101776.94;4989543;28;19961;-64
2022/12/05 07:35:08;;;;;;;;;;;;;;;2.02;100.00;101776.94;4990803;28;19918;-64
2022/12/05 07:37:33;;;;;;;;;;;;;;;2.02;100.00;101771.50;4990871;28;20055;-66
2022/12/05 07:39:58;;;;;;;;;;;;;;;2.03;100.00;101777.78;4991017;28;20013;-64
2022/12/05 07:42:24;;;;;;;;;;;;;;;2.02;100.00;101773.41;4991190;28;19976;-64
2022/12/05 07:44:49;;;;;;;;;;;;;;;2.01;100.00;101777.19;4991093;28;20013;-64
2022/12/05 07:47:14;;;;;;;;;;;;;;;2.02;100.00;101774.22;4991126;28;19952;-64
2022/12/05 07:49:39;;;;;;;;;;;;;;;2.03;100.00;101775.88;4992653;28;20064;-64
2022/12/05 07:52:05;;;;;;;;;;;;;;;2.01;100.00;101778.00;4994477;28;19914;-66
2022/12/05 07:54:30;;;;;;;;;;;;;;;2.06;100.00;101780.06;4994257;28;19918;-63
2022/12/05 07:56:55;;;;;;;;;;;;;;;2.09;100.00;101785.06;4994440;28;20004;-67
2022/12/05 07:59:20;;;;;;;;;;;;;;;2.10;100.00;101777.69;4994574;28;20011;-66
2022/12/05 08:01:46;;;;;;;;;;;;;;;2.11;100.00;101791.16;4994302;28;20348;-66
2022/12/05 08:04:11;;;;;;;;;;;;;;;2.12;100.00;101794.69;4994672;28;19921;-66
2022/12/05 08:06:36;;;;;;;;;;;;;;;2.14;100.00;101792.59;4994443;28;19913;-66
2022/12/05 08:09:02;;;;;;;;;;;;;;;2.14;100.00;101795.31;4998710;28;20349;-67
2022/12/05 08:11:29;;;;;;;;;;;;;;;2.16;100.00;101804.13;5012794;28;19917;-65
2022/12/05 08:13:55;;;;;;;;;;;;;;;2.15;100.00;101800.53;5013030;28;20011;-65
2022/12/05 08:16:21;;;;;;;;;;;;;;;2.17;100.00;101805.78;5011304;28;19968;-65
2022/12/05 08:18:47;;;;;;;;;;;;;;;2.17;100.00;101806.63;5012659;28;19940;-65
2022/12/05 08:21:14;;;;;;;;;;;;;;;2.17;100.00;101811.25;5012368;28;19921;-65
2022/12/05 08:23:41;;;;;;;;;;;;;;;2.16;100.00;101804.94;5011122;28;19921;-65
2022/12/05 08:26:12;;;;;;;;;;;;;;;2.17;100.00;101814.81;5012186;28;20356;-65
2022/12/05 08:28:37;;;;;;;;;;;;;;;2.18;100.00;101815.63;5027177;28;19960;-65
2022/12/05 08:31:04;;;;;;;;;;;;;;;2.20;100.00;101816.25;5012197;28;20316;-66
2022/12/05 08:33:29;;;;;;;;;;;;;;;2.22;100.00;101822.31;5011869;28;19944;-65
2022/12/05 08:35:54;;;;;;;;;;;;;;;2.23;100.00;101823.13;5011822;28;19917;-65
2022/12/05 08:38:19;;;;;;;;;;;;;;;2.22;100.00;101822.31;5012026;28;19922;-66
2022/12/05 08:40:46;;;;;;;;;;;;;;;2.22;100.00;101821.50;5012013;28;19924;-65
2022/12/05 08:43:12;;;;;;;;;;;;;;;2.23;100.00;101820.41;5012280;28;19914;-66
2022/12/05 08:45:37;;;;;;;;;;;;;;;2.25;100.00;101829.22;5011883;28;20011;-65
2022/12/05 08:48:02;;;;;;;;;;;;;;;2.26;100.00;101823.53;5011920;28;19963;-65
2022/12/05 08:50:27;;;;;;;;;;;;;;;2.28;100.00;101828.78;5013049;28;20369;-65
2022/12/05 08:52:54;;;;;;;;;;;;;;;2.28;100.00;101823.31;5011917;28;19923;-65
2022/12/05 08:55:19;;;;;;;;;;;;;;;2.29;100.00;101827.72;5012108;28;19922;-66
2022/12/05 08:57:44;;;;;;;;;;;;;;;2.29;100.00;101830.44;5011923;28;20530;-66
2022/12/05 09:00:10;;;;;;;;;;;;;;;2.28;100.00;101823.31;5009860;28;19917;-66
2022/12/05 09:02:35;;;;;;;;;;;;;;;2.29;100.00;101835.91;5013383;28;20380;-66
2022/12/05 09:05:00;;;;;;;;;;;;;;;2.31;100.00;101833.78;5014136;28;20351;-66
2022/12/05 09:07:25;;;;;;;;;;;;;;;2.33;100.00;101834.38;5013789;28;19913;-65
2022/12/05 09:09:51;;;;;;;;;;;;;;;2.33;100.00;101837.97;5014060;28;20381;-65
2022/12/05 09:12:16;;;;;;;;;;;;;;;2.36;100.00;101838.56;5013599;28;19917;-66
2022/12/05 09:14:41;;;;;;;;;;;;;;;2.36;100.00;101842.13;5013710;28;19917;-66
2022/12/05 09:17:07;;;;;;;;;;;;;;;2.38;100.00;101839.16;5013762;28;20452;-65
2022/12/05 09:19:33;;;;;;;;;;;;;;;2.39;100.00;101849.03;5013802;28;20024;-66
2022/12/05 09:21:58;;;;;;;;;;;;;;;2.40;100.00;101848.81;5013742;28;19928;-66
2022/12/05 09:24:24;;;;;;;;;;;;;;;2.41;100.00;101855.09;5013753;28;19924;-66
2022/12/05 09:26:49;;;;;;;;;;;;;;;2.44;100.00;101857.38;5013540;28;19918;-66
2022/12/05 09:29:14;;;;;;;;;;;;;;;2.46;100.00;101856.09;5013590;28;19917;-66
2022/12/05 09:31:41;;;;;;;;;;;;;;;2.48;100.00;101856.72;5013670;28;19917;-67
2022/12/05 09:34:07;;;;;;;;;;;;;;;2.48;100.00;101864.06;5013533;28;20007;-66
2022/12/05 09:36:32;;;;;;;;;;;;;;;2.50;100.00;101872.88;5013361;28;20385;-67
2022/12/05 09:38:59;;;;;;;;;;;;;;;2.52;100.00;101870.75;5013675;28;20277;-66
2022/12/05 09:44:46;;;;;;;;;;;;;;;2.54;100.00;101867.78;5013436;28;19916;-67
2022/12/05 09:47:16;;;;;;;;;;;;;;;2.54;100.00;101868.63;5013398;28;19928;-67
2022/12/05 09:49:46;;;;;;;;;;;;;;;2.55;100.00;101873.00;5013304;28;19913;-66
2022/12/05 09:52:16;;;;;;;;;;;;;;;2.58;100.00;101869.00;5013255;28;20387;-66
2022/12/05 09:54:41;;;;;;;;;;;;;;;2.57;100.00;101873.63;5013119;28;20666;-66
2022/12/05 09:57:08;;;;;;;;;;;;;;;2.57;100.00;101865.41;5013235;28;19921;-66
2022/12/05 09:59:33;;;;;;;;;;;;;;;2.57;100.00;101875.53;5013168;28;20312;-66
2022/12/05 10:02:10;;;;;;;;;;;;;;;2.56;100.00;101873.84;5013163;28;19913;-66
2022/12/05 10:04:54;;;;;;;;;;;;;;;2.57;100.00;101870.88;5012171;28;19936;-65
2022/12/05 10:07:38;;;;;;;;;;;;;;;2.57;100.00;101881.81;5012017;28;19928;-67
2022/12/05 10:10:03;;;;;;;;;;;;;;;2.58;100.00;101877.19;5009400;28;19971;-67
2022/12/05 10:12:43;;;;;;;;;;;;;;;2.58;100.00;101875.28;5000085;28;19953;-67
2022/12/05 10:15:15;;;;;;;;;;;;;;;2.59;100.00;101874.22;4997397;28;19924;-67
2022/12/05 10:17:44;;;;;;;;;;;;;;;2.60;100.00;101875.06;4992333;28;20004;-67
2022/12/05 10:20:20;;;;;;;;;;;;;;;2.61;100.00;101874.84;4992435;28;19914;-66
2022/12/05 10:22:45;;;;;;;;;;;;;;;2.63;100.00;101872.72;4992259;28;19921;-67
2022/12/05 10:25:12;;;;;;;;;;;;;;;2.64;100.00;101870.81;4992263;28;19914;-68
2022/12/05 10:27:40;;;;;;;;;;;;;;;2.64;100.00;101873.56;4999308;28;19924;-63
2022/12/05 10:30:12;;;;;;;;;;;;;;;2.67;100.00;101872.25;5008616;28;19913;-62
2022/12/05 10:32:43;;;;;;;;;;;;;;;2.69;100.00;101861.94;5011901;28;19920;-64
2022/12/05 10:35:31;;;;;;;;;;;;;;;2.71;100.00;101865.28;5011501;28;19924;-64
2022/12/05 10:37:58;;;;;;;;;;;;;;;2.73;100.00;101871.38;5005995;28;19917;-65
2022/12/05 10:40:26;;;;;;;;;;;;;;;2.76;100.00;101876.34;4997654;28;19949;-64
2022/12/05 10:42:51;;;;;;;;;;;;;;;2.76;100.00;101873.63;4991822;28;20365;-64
2022/12/05 10:45:21;;;;;;;;;;;;;;;2.77;100.00;101878.03;4991862;28;19988;-63
2022/12/05 10:47:47;;;;;;;;;;;;;;;2.74;100.00;101875.78;5002028;28;19928;-63
2022/12/05 10:50:28;;;;;;;;;;;;;;;2.74;100.00;101870.31;5011239;28;20694;-64
2022/12/05 10:52:54;;;;;;;;;;;;;;;2.74;100.00;101873.03;5009718;28;20431;-64
2022/12/05 10:55:20;;;;;;;;;;;;;;;2.73;100.00;101871.38;5010595;28;19924;-64
2022/12/05 10:58:05;;;;;;;;;;;;;;;2.72;100.00;101881.44;5010644;28;19921;-63
2022/12/05 11:00:31;;;;;;;;;;;;;;;2.71;100.00;101868.84;5011673;28;19913;-64
2022/12/05 11:02:56;;;;;;;;;;;;;;;2.75;100.00;101869.22;5000532;28;20012;-64
2022/12/05 11:05:29;;;;;;;;;;;;;;;2.78;100.00;101872.34;4993368;28;20323;-63
2022/12/05 11:07:55;;;;;;;;;;;;;;;2.78;100.00;101864.16;5012256;28;19997;-64
2022/12/05 11:10:27;;;;;;;;;;;;;;;2.78;100.00;101871.50;5003729;28;19921;-63
2022/12/05 11:12:54;;;;;;;;;;;;;;;2.79;100.00;101871.25;4999492;28;19917;-63
2022/12/05 11:15:21;;;;;;;;;;;;;;;2.83;100.00;101868.06;4999904;28;20304;-63
2022/12/05 11:17:47;;;;;;;;;;;;;;;2.83;100.00;101863.47;5003879;28;19998;-64
2022/12/05 11:20:18;;;;;;;;;;;;;;;2.83;100.00;101849.81;5003720;28;20157;-63
2022/12/05 11:22:45;;;;;;;;;;;;;;;2.85;100.00;101860.50;5001017;28;19945;-64
2022/12/05 11:25:22;;;;;;;;;;;;;;;2.87;100.00;101852.91;5003023;28;19914;-63
2022/12/05 11:27:47;;;;;;;;;;;;;;;2.85;100.00;101855.84;5007359;28;19918;-64
2022/12/05 11:30:18;;;;;;;;;;;;;;;2.88;100.00;101855.41;5005729;28;19967;-64
2022/12/05 11:32:43;;;;;;;;;;;;;;;2.87;100.00;101852.91;5006496;28;19963;-64
2022/12/05 11:35:17;;;;;;;;;;;;;;;2.86;100.00;101857.53;5006559;28;19913;-64
2022/12/05 11:37:56;;;;;;;;;;;;;;;2.87;100.00;101856.47;5003878;28;20309;-63
2022/12/05 11:40:24;;;;;;;;;;;;;;;2.88;100.00;101854.56;5007382;28;19913;-65
2022/12/05 11:43:04;;;;;;;;;;;;;;;2.88;100.00;101858.13;5005963;28;20287;-64
2022/12/05 11:45:40;;;;;;;;;;;;;;;2.86;100.00;101854.78;5006088;28;19921;-63
2022/12/05 11:48:05;;;;;;;;;;;;;;;2.81;100.00;101858.22;5003716;28;20061;-63
2022/12/05 11:50:35;;;;;;;;;;;;;;;2.79;100.00;101867.72;4995799;28;19918;-63
2022/12/05 11:53:06;;;;;;;;;;;;;;;2.79;100.00;101854.03;4995604;28;20005;-63
2022/12/05 11:55:31;;;;;;;;;;;;;;;2.77;100.00;101856.16;4995493;28;19924;-63
2022/12/05 11:57:59;;;;;;;;;;;;;;;2.75;100.00;101861.00;5013917;28;19993;-64
2022/12/05 12:00:46;;;;;;;;;;;;;;;2.73;100.00;101855.78;5014927;28;20361;-63
2022/12/05 12:03:26;;;;;;;;;;;;;;;2.71;100.00;101854.34;5017342;28;20285;-63
2022/12/05 12:05:57;;;;;;;;;;;;;;;2.69;100.00;101853.75;5015329;28;19914;-64
2022/12/05 12:08:26;;;;;;;;;;;;;;;2.70;100.00;101850.78;5012034;28;20341;-64
2022/12/05 12:10:51;;;;;;;;;;;;;;;2.76;100.00;101851.75;5014742;28;19920;-64
2022/12/05 12:13:22;;;;;;;;;;;;;;;2.82;100.00;101853.59;5015267;28;19917;-64
2022/12/05 12:16:11;;;;;;;;;;;;;;;2.86;100.00;101857.53;5014276;28;20274;-64
2022/12/05 12:18:55;;;;;;;;;;;;;;;2.93;100.00;101854.72;4995244;28;19922;-64
2022/12/05 12:21:26;;;;;;;;;;;;;;;2.94;100.00;101857.19;4993500;28;20379;-64
2022/12/05 12:24:10;;;;;;;;;;;;;;;2.91;100.00;101862.28;4995019;28;19914;-64
2022/12/05 12:27:01;;;;;;;;;;;;;;;2.87;100.00;101859.19;4994858;28;19968;-64
2022/12/05 12:29:26;;;;;;;;;;;;;;;2.84;100.00;101854.16;4994757;28;19952;-64
2022/12/05 12:31:51;;;;;;;;;;;;;;;2.83;100.00;101860.72;4994854;28;19969;-64
2022/12/05 12:34:32;;;;;;;;;;;;;;;2.78;100.00;101852.38;4994822;28;19918;-64
2022/12/05 12:37:02;;;;;;;;;;;;;;;2.76;100.00;101849.03;4993929;28;20025;-64
2022/12/05 12:39:43;;;;;;;;;;;;;;;2.68;100.00;101841.13;4994682;28;19918;-64
2022/12/05 12:42:20;;;;;;;;;;;;;;;2.63;100.00;101841.81;4994723;28;19984;-64
2022/12/05 12:44:55;;;;;;;;;;;;;;;2.69;100.00;101843.66;4994551;28;19914;-64
2022/12/05 12:47:38;;;;;;;;;;;;;;;2.76;100.00;101840.81;4994590;28;20354;-64
2022/12/05 12:50:03;;;;;;;;;;;;;;;2.69;100.00;101823.69;4994432;28;19930;-64
2022/12/05 12:52:36;;;;;;;;;;;;;;;2.77;100.00;101837.03;4994466;28;20008;-64
2022/12/05 12:55:01;;;;;;;;;;;;;;;2.76;100.00;101832.63;4994542;28;19914;-65